Time;durP1;ratioP1;P1;durP2;ratioP2;P2;SDS_P1;SDS_P2;PMS_P1;PMS_P2;Temp;Humidity;BMP_temperature;BMP_pressure;BME280_temperature;BME280_humidity;BME280_pressure;Samples;Min_cycle;Max_cycle;Signal;HPM_P1;HPM_P2
2021/09/08 00:00:42;;;;;;;18.75;12.50;;;18.30;78.90;;;;;;5094801;28;20036;-86
2021/09/08 00:03:08;;;;;;;17.27;11.43;;;18.30;79.10;;;;;;5095970;28;20388;-86
2021/09/08 00:05:34;;;;;;;16.63;11.95;;;18.20;79.30;;;;;;5083006;28;20105;-86
2021/09/08 00:08:00;;;;;;;15.18;11.25;;;18.10;79.50;;;;;;5091998;28;20039;-86
2021/09/08 00:10:26;;;;;;;21.38;12.77;;;18.10;79.70;;;;;;5110044;28;20395;-86
2021/09/08 00:12:52;;;;;;;19.90;12.82;;;18.10;79.90;;;;;;5095289;28;20031;-86
2021/09/08 00:15:18;;;;;;;17.60;12.70;;;18.00;80.00;;;;;;5094974;28;20031;-86
2021/09/08 00:17:43;;;;;;;22.25;12.70;;;18.10;80.20;;;;;;5111558;28;20484;-86
2021/09/08 00:20:10;;;;;;;17.88;12.27;;;18.00;80.30;;;;;;5092439;28;20088;-86
2021/09/08 00:22:37;;;;;;;15.73;12.25;;;18.00;80.40;;;;;;5086688;28;20084;-86
2021/09/08 00:25:05;;;;;;;18.08;12.50;;;18.00;80.50;;;;;;5112816;28;20077;-86
2021/09/08 00:27:30;;;;;;;17.23;12.38;;;18.00;80.70;;;;;;5113252;28;20016;-86
2021/09/08 00:29:56;;;;;;;18.20;13.10;;;17.90;80.60;;;;;;5111828;28;20038;-86
2021/09/08 00:32:21;;;;;;;14.40;12.02;;;17.90;80.70;;;;;;5094916;28;20106;-86
2021/09/08 00:34:47;;;;;;;17.67;12.23;;;17.90;80.80;;;;;;5075915;28;20177;-86
2021/09/08 00:37:13;;;;;;;22.20;12.93;;;17.80;80.80;;;;;;5102605;28;20068;-86
2021/09/08 00:39:38;;;;;;;18.02;13.10;;;17.90;80.90;;;;;;5117701;28;20061;-86
2021/09/08 00:42:18;;;;;;;19.17;13.23;;;17.90;80.80;;;;;;5095399;28;20028;-86
2021/09/08 00:44:45;;;;;;;18.75;14.65;;;17.80;81.00;;;;;;5114670;28;20043;-86
2021/09/08 00:47:15;;;;;;;23.10;14.00;;;17.80;81.00;;;;;;5114409;28;20428;-86
2021/09/08 00:49:42;;;;;;;19.10;12.75;;;17.80;81.20;;;;;;5115001;27;20481;-85
2021/09/08 00:52:11;;;;;;;17.40;11.85;;;17.80;81.40;;;;;;5109053;28;20372;-85
2021/09/08 00:54:38;;;;;;;18.55;12.45;;;17.70;81.40;;;;;;5113491;28;20053;-86
2021/09/08 00:57:07;;;;;;;17.77;12.50;;;17.70;81.50;;;;;;5106816;28;20048;-86
2021/09/08 00:59:34;;;;;;;18.73;13.05;;;17.70;81.80;;;;;;5110740;28;20032;-86
2021/09/08 01:02:00;;;;;;;17.70;13.25;;;17.70;81.80;;;;;;5109420;28;20030;-87
2021/09/08 01:04:27;;;;;;;22.48;12.95;;;17.60;81.90;;;;;;5114606;28;20032;-87
2021/09/08 01:06:56;;;;;;;21.08;13.45;;;17.60;82.00;;;;;;5114227;28;20035;-86
2021/09/08 01:09:22;;;;;;;23.65;12.98;;;17.60;82.20;;;;;;5097943;28;20058;-86
2021/09/08 01:11:48;;;;;;;20.80;13.05;;;17.60;82.30;;;;;;5108300;28;20122;-87
2021/09/08 01:14:13;;;;;;;20.50;13.30;;;17.50;82.40;;;;;;5097248;28;20712;-86
2021/09/08 01:16:39;;;;;;;18.35;13.43;;;17.50;82.40;;;;;;5098580;28;20034;-86
2021/09/08 01:19:04;;;;;;;17.02;12.60;;;17.50;82.50;;;;;;5080996;28;20032;-86
2021/09/08 01:21:30;;;;;;;20.40;13.30;;;17.50;82.60;;;;;;5092998;28;20115;-86
2021/09/08 01:24:04;;;;;;;23.38;13.50;;;17.50;82.80;;;;;;5116672;28;20024;-86
2021/09/08 01:26:30;;;;;;;19.70;12.68;;;17.50;83.00;;;;;;5105081;28;20032;-86
2021/09/08 01:28:55;;;;;;;18.88;13.05;;;17.50;83.00;;;;;;5097684;28;20039;-86
2021/09/08 01:31:21;;;;;;;17.00;12.55;;;17.40;83.00;;;;;;5115510;28;20389;-86
2021/09/08 01:33:46;;;;;;;17.17;12.93;;;17.40;83.10;;;;;;5098495;28;20058;-85
2021/09/08 01:36:12;;;;;;;24.70;13.35;;;17.40;83.20;;;;;;5114449;28;20092;-86
2021/09/08 01:38:38;;;;;;;18.83;13.27;;;17.40;83.30;;;;;;5091953;28;20099;-86
2021/09/08 01:41:03;;;;;;;20.02;13.10;;;17.40;83.50;;;;;;5085452;28;20031;-86
2021/09/08 01:43:29;;;;;;;21.88;13.85;;;17.30;83.60;;;;;;5114917;28;20028;-86
2021/09/08 01:45:54;;;;;;;20.20;13.95;;;17.30;83.70;;;;;;5095856;28;20503;-86
2021/09/08 01:48:20;;;;;;;20.42;13.43;;;17.30;83.90;;;;;;5110640;28;20043;-86
2021/09/08 01:50:47;;;;;;;20.30;12.90;;;17.20;83.90;;;;;;5113452;28;20380;-86
2021/09/08 01:53:12;;;;;;;24.27;13.80;;;17.20;84.00;;;;;;5107379;28;20035;-85
2021/09/08 01:55:38;;;;;;;23.20;15.02;;;17.20;84.00;;;;;;5099097;28;20422;-86
2021/09/08 01:58:04;;;;;;;18.35;13.55;;;17.20;84.00;;;;;;5115891;28;20233;-85
2021/09/08 02:00:30;;;;;;;23.63;15.25;;;17.20;84.10;;;;;;5113894;28;20032;-87
2021/09/08 02:02:55;;;;;;;21.80;14.95;;;17.10;84.30;;;;;;5116697;28;20016;-86
2021/09/08 02:05:21;;;;;;;20.75;13.50;;;17.10;84.60;;;;;;5114447;28;20098;-86
2021/09/08 02:07:47;;;;;;;23.60;13.93;;;17.10;85.40;;;;;;5097434;28;20084;-86
2021/09/08 02:10:13;;;;;;;17.88;13.48;;;17.10;85.50;;;;;;5115111;28;20825;-86
2021/09/08 02:12:39;;;;;;;25.20;14.50;;;17.10;84.90;;;;;;5114826;28;20472;-86
2021/09/08 02:15:06;;;;;;;29.00;14.60;;;17.10;84.80;;;;;;5114743;28;20357;-86
2021/09/08 02:17:32;;;;;;;23.65;14.90;;;17.20;84.90;;;;;;5113862;28;20028;-87
2021/09/08 02:19:58;;;;;;;22.50;14.13;;;17.20;84.90;;;;;;5107877;28;20081;-85
2021/09/08 02:22:24;;;;;;;23.33;13.75;;;17.20;85.00;;;;;;5113492;28;20476;-86
2021/09/08 02:24:49;;;;;;;24.00;14.90;;;17.20;85.00;;;;;;5096905;28;20027;-86
2021/09/08 02:27:15;;;;;;;23.25;13.77;;;17.20;85.10;;;;;;5114339;28;20030;-85
2021/09/08 02:29:41;;;;;;;20.00;13.73;;;17.20;85.10;;;;;;5109841;28;20066;-84
2021/09/08 02:32:06;;;;;;;21.77;13.27;;;17.20;85.20;;;;;;5113790;28;20696;-87
2021/09/08 02:34:32;;;;;;;21.45;13.73;;;17.20;85.20;;;;;;5093603;28;20036;-86
2021/09/08 02:36:58;;;;;;;20.10;13.57;;;17.20;85.10;;;;;;5106051;28;20028;-86
2021/09/08 02:39:24;;;;;;;19.65;14.75;;;17.20;85.10;;;;;;5111828;28;20128;-86
2021/09/08 02:41:50;;;;;;;19.63;13.55;;;17.20;85.10;;;;;;5095126;28;20068;-86
2021/09/08 02:44:15;;;;;;;21.02;14.38;;;17.10;85.10;;;;;;5111992;28;20043;-86
2021/09/08 02:46:41;;;;;;;24.50;13.82;;;17.20;85.10;;;;;;5093907;28;20035;-87
2021/09/08 02:49:08;;;;;;;19.88;14.65;;;17.20;85.10;;;;;;5109370;28;20053;-87
2021/09/08 02:51:34;;;;;;;19.52;13.00;;;17.10;85.00;;;;;;5107388;28;20466;-87
2021/09/08 02:53:59;;;;;;;19.90;14.30;;;17.20;85.10;;;;;;5110108;28;20078;-87
2021/09/08 02:56:25;;;;;;;21.05;14.07;;;17.10;85.00;;;;;;5111445;28;20054;-87
2021/09/08 02:58:51;;;;;;;20.48;14.68;;;17.10;85.10;;;;;;5107882;28;20126;-86
2021/09/08 03:01:19;;;;;;;18.83;12.85;;;17.10;85.10;;;;;;5092059;28;21700;-87
2021/09/08 03:03:45;;;;;;;19.27;13.45;;;17.10;85.20;;;;;;5094034;28;20042;-81
2021/09/08 03:06:10;;;;;;;19.60;14.80;;;17.00;85.20;;;;;;5110337;28;20035;-81
2021/09/08 03:08:36;;;;;;;18.20;13.80;;;17.00;85.20;;;;;;5107111;28;20063;-81
2021/09/08 03:11:02;;;;;;;21.45;13.88;;;17.00;85.30;;;;;;5100651;28;20023;-81
2021/09/08 03:13:28;;;;;;;18.35;13.45;;;17.00;85.30;;;;;;5096492;28;20540;-81
2021/09/08 03:15:53;;;;;;;21.40;13.93;;;17.00;85.30;;;;;;5109018;27;20111;-81
2021/09/08 03:18:19;;;;;;;19.38;13.48;;;17.00;85.40;;;;;;5093617;28;20028;-81
2021/09/08 03:20:45;;;;;;;20.60;13.60;;;16.90;85.30;;;;;;5096160;28;20039;-81
2021/09/08 03:23:10;;;;;;;21.63;13.70;;;16.90;85.20;;;;;;5095962;28;20188;-81
2021/09/08 03:25:36;;;;;;;18.13;13.40;;;16.90;85.30;;;;;;5109599;28;20028;-80
2021/09/08 03:28:02;;;;;;;20.42;14.13;;;16.90;85.30;;;;;;5110690;28;20114;-81
2021/09/08 03:30:28;;;;;;;22.48;15.45;;;16.90;85.60;;;;;;5101504;28;20164;-81
2021/09/08 03:32:54;;;;;;;23.63;14.38;;;16.80;85.70;;;;;;5107195;28;20034;-81
2021/09/08 03:35:20;;;;;;;25.02;14.45;;;16.80;85.80;;;;;;5108037;28;20032;-81
2021/09/08 03:37:46;;;;;;;21.27;13.57;;;16.70;85.80;;;;;;5092643;28;20039;-81
2021/09/08 03:40:12;;;;;;;23.13;14.27;;;16.70;85.80;;;;;;5079065;28;20379;-81
2021/09/08 03:42:40;;;;;;;21.60;14.18;;;16.70;85.90;;;;;;5111774;28;20059;-81
2021/09/08 03:45:09;;;;;;;25.85;14.65;;;16.70;85.90;;;;;;5100308;28;20055;-81
2021/09/08 03:47:35;;;;;;;18.27;13.25;;;16.70;85.80;;;;;;5110536;28;20024;-81
2021/09/08 03:50:01;;;;;;;20.25;14.90;;;16.70;86.40;;;;;;5101719;28;20043;-81
2021/09/08 03:52:27;;;;;;;20.35;15.18;;;16.70;85.80;;;;;;5092800;28;20036;-81
2021/09/08 03:54:52;;;;;;;18.83;14.25;;;16.70;85.70;;;;;;5112430;28;20028;-81
2021/09/08 03:57:18;;;;;;;22.67;14.43;;;16.70;85.70;;;;;;5087801;28;20135;-81
2021/09/08 03:59:44;;;;;;;18.65;12.80;;;16.70;85.60;;;;;;5098302;28;20032;-81
2021/09/08 04:02:09;;;;;;;19.65;13.38;;;16.70;85.60;;;;;;5107344;28;20028;-81
2021/09/08 04:04:35;;;;;;;21.13;13.65;;;16.80;85.70;;;;;;5088918;28;20032;-81
2021/09/08 04:07:00;;;;;;;20.35;13.68;;;16.70;85.70;;;;;;5090495;28;20473;-81
2021/09/08 04:09:26;;;;;;;17.17;12.18;;;16.70;85.60;;;;;;5098421;27;20059;-81
2021/09/08 04:11:51;;;;;;;18.23;13.40;;;16.70;85.50;;;;;;5080890;28;20385;-81
2021/09/08 04:14:17;;;;;;;18.83;13.15;;;16.70;85.50;;;;;;5092042;28;20028;-81
2021/09/08 04:16:43;;;;;;;21.65;14.30;;;16.70;85.60;;;;;;5087266;28;20032;-81
2021/09/08 04:19:09;;;;;;;20.58;13.10;;;16.70;86.20;;;;;;5075300;28;20070;-81
2021/09/08 04:21:34;;;;;;;21.60;14.50;;;16.60;85.60;;;;;;5104332;28;20464;-81
2021/09/08 04:24:00;;;;;;;20.98;13.70;;;16.70;85.60;;;;;;5095494;28;20122;-81
2021/09/08 04:26:26;;;;;;;21.10;14.45;;;16.60;86.20;;;;;;5108960;28;20052;-81
2021/09/08 04:28:52;;;;;;;17.80;13.45;;;16.60;85.60;;;;;;5101255;28;20682;-81
2021/09/08 04:31:18;;;;;;;16.48;12.73;;;16.60;85.70;;;;;;5113006;28;20054;-81
2021/09/08 04:33:43;;;;;;;21.92;13.57;;;16.60;85.70;;;;;;5113661;28;20375;-81
2021/09/08 04:36:09;;;;;;;18.73;13.35;;;16.60;85.70;;;;;;5111768;28;20027;-81
2021/09/08 04:38:37;;;;;;;20.52;13.23;;;16.60;85.80;;;;;;5092200;28;20434;-81
2021/09/08 04:41:03;;;;;;;18.48;12.82;;;16.50;86.00;;;;;;5099898;28;20024;-81
2021/09/08 04:43:28;;;;;;;21.42;14.63;;;16.40;86.10;;;;;;5092755;28;20032;-81
2021/09/08 04:45:55;;;;;;;18.13;13.10;;;16.40;86.20;;;;;;5102610;28;20077;-81
2021/09/08 04:48:21;;;;;;;19.33;13.80;;;16.40;87.00;;;;;;5111309;28;20028;-81
2021/09/08 04:50:47;;;;;;;20.13;12.60;;;16.40;86.50;;;;;;5106742;28;20058;-81
2021/09/08 04:53:12;;;;;;;24.25;14.07;;;16.30;86.50;;;;;;5101885;28;20064;-81
2021/09/08 04:55:38;;;;;;;21.90;13.95;;;16.30;86.60;;;;;;5079757;28;20032;-81
2021/09/08 04:58:04;;;;;;;18.98;14.35;;;16.30;86.60;;;;;;5102851;28;20101;-81
2021/09/08 05:00:30;;;;;;;22.83;13.75;;;16.30;86.70;;;;;;5093535;28;20028;-81
2021/09/08 05:02:55;;;;;;;25.92;14.00;;;16.30;86.70;;;;;;5104887;28;20032;-81
2021/09/08 05:05:21;;;;;;;21.50;13.73;;;16.30;86.70;;;;;;5103151;28;20545;-81
2021/09/08 05:07:46;;;;;;;27.63;14.48;;;16.30;86.70;;;;;;5113328;28;20047;-81
2021/09/08 05:10:12;;;;;;;26.73;14.45;;;16.30;86.70;;;;;;5111815;28;20027;-81
2021/09/08 05:12:38;;;;;;;20.52;13.40;;;16.20;86.80;;;;;;5099914;28;20052;-81
2021/09/08 05:15:05;;;;;;;18.90;12.60;;;16.20;86.80;;;;;;5111438;28;20372;-81
2021/09/08 05:17:31;;;;;;;22.00;13.68;;;16.20;86.80;;;;;;5112564;28;20467;-81
2021/09/08 05:19:56;;;;;;;23.48;14.40;;;16.30;86.70;;;;;;5113180;28;20028;-81
2021/09/08 05:22:22;;;;;;;20.80;13.75;;;16.30;86.70;;;;;;5094741;28;20032;-81
2021/09/08 05:24:47;;;;;;;23.10;13.38;;;16.30;86.60;;;;;;5114865;28;20027;-81
2021/09/08 05:27:13;;;;;;;27.70;13.88;;;16.30;86.60;;;;;;5096363;28;20059;-81
2021/09/08 05:29:39;;;;;;;26.02;14.00;;;16.30;86.70;;;;;;5110987;28;20111;-81
2021/09/08 05:32:05;;;;;;;20.85;13.73;;;16.30;87.40;;;;;;5078403;28;20119;-81
2021/09/08 05:34:30;;;;;;;18.10;12.93;;;16.30;86.80;;;;;;5097301;28;20051;-81
2021/09/08 05:36:56;;;;;;;21.95;13.95;;;16.30;87.00;;;;;;5109231;28;20024;-81
2021/09/08 05:39:21;;;;;;;22.77;13.73;;;16.30;87.00;;;;;;5115616;28;20043;-80
2021/09/08 05:41:47;;;;;;;20.50;13.60;;;16.30;86.80;;;;;;5109949;28;20024;-81
2021/09/08 05:44:13;;;;;;;19.27;13.60;;;16.40;86.80;;;;;;5095383;28;20053;-80
2021/09/08 05:46:38;;;;;;;22.20;14.05;;;16.40;86.60;;;;;;5096997;28;20031;-81
2021/09/08 05:49:04;;;;;;;22.77;13.95;;;16.50;86.60;;;;;;5114788;28;20028;-81
2021/09/08 05:51:30;;;;;;;24.83;14.15;;;16.40;86.50;;;;;;5080335;28;20024;-81
2021/09/08 05:53:55;;;;;;;23.58;14.32;;;16.50;86.60;;;;;;5115916;28;20107;-81
2021/09/08 05:56:21;;;;;;;19.65;13.98;;;16.60;86.60;;;;;;5109343;28;20102;-81
2021/09/08 05:58:47;;;;;;;24.58;15.40;;;16.60;86.40;;;;;;5080967;28;20047;-81
2021/09/08 06:01:13;;;;;;;19.42;13.38;;;16.60;86.20;;;;;;5091493;28;20085;-81
2021/09/08 06:03:38;;;;;;;21.05;14.20;;;16.70;86.10;;;;;;5077979;28;20036;-81
2021/09/08 06:06:04;;;;;;;21.77;14.10;;;16.80;86.10;;;;;;5090204;28;20039;-81
2021/09/08 06:08:30;;;;;;;20.00;12.98;;;16.80;86.10;;;;;;5097896;28;20066;-81
2021/09/08 06:10:56;;;;;;;19.63;14.02;;;16.80;85.90;;;;;;5100218;28;20024;-81
2021/09/08 06:13:22;;;;;;;19.20;14.13;;;16.90;85.80;;;;;;5097881;28;20030;-81
2021/09/08 06:15:48;;;;;;;20.00;12.95;;;17.00;85.70;;;;;;5097060;28;20114;-81
2021/09/08 06:18:13;;;;;;;20.92;13.32;;;17.00;85.50;;;;;;5097456;28;20062;-81
2021/09/08 06:20:39;;;;;;;18.80;14.05;;;17.10;85.40;;;;;;5105083;28;20039;-81
2021/09/08 06:23:05;;;;;;;20.42;12.27;;;17.20;85.10;;;;;;5095573;28;20080;-81
2021/09/08 06:25:30;;;;;;;21.48;13.52;;;17.30;84.90;;;;;;5091632;28;20067;-81
2021/09/08 06:27:56;;;;;;;19.23;13.48;;;17.30;85.50;;;;;;5094521;28;20031;-80
2021/09/08 06:30:22;;;;;;;19.45;13.73;;;17.40;84.60;;;;;;5080439;28;20028;-81
2021/09/08 06:32:47;;;;;;;20.65;12.95;;;17.50;84.30;;;;;;5104338;28;20032;-80
2021/09/08 06:35:13;;;;;;;20.63;13.00;;;17.60;84.20;;;;;;5095034;28;20028;-81
2021/09/08 06:37:39;;;;;;;24.05;14.02;;;17.60;83.90;;;;;;5094178;28;20028;-81
2021/09/08 06:40:05;;;;;;;21.25;13.52;;;17.80;84.20;;;;;;5082858;28;20122;-81
2021/09/08 06:42:31;;;;;;;19.08;13.48;;;17.80;83.40;;;;;;5095257;28;20154;-81
2021/09/08 06:44:56;;;;;;;16.67;12.60;;;17.90;83.10;;;;;;5093896;28;20114;-81
2021/09/08 06:47:23;;;;;;;16.92;12.50;;;18.00;82.80;;;;;;5094850;28;20082;-81
2021/09/08 06:49:50;;;;;;;21.63;13.57;;;18.10;82.60;;;;;;5077074;28;20025;-81
2021/09/08 06:52:16;;;;;;;23.25;14.02;;;18.20;82.40;;;;;;5102730;28;20472;-81
2021/09/08 06:54:42;;;;;;;18.52;12.90;;;18.30;82.10;;;;;;5109002;28;20028;-81
2021/09/08 06:57:09;;;;;;;20.10;12.07;;;18.40;81.70;;;;;;5102418;28;20032;-81
2021/09/08 06:59:35;;;;;;;19.83;12.77;;;18.50;81.40;;;;;;5099797;28;20494;-81
2021/09/08 07:02:01;;;;;;;19.05;13.35;;;18.60;81.30;;;;;;5115168;28;20028;-81
2021/09/08 07:04:27;;;;;;;20.88;12.77;;;18.60;81.00;;;;;;5109336;28;20036;-81
2021/09/08 07:06:53;;;;;;;19.08;12.60;;;18.70;80.70;;;;;;5095039;28;20036;-81
2021/09/08 07:09:19;;;;;;;17.83;12.43;;;18.80;80.70;;;;;;5112436;28;20055;-80
2021/09/08 07:11:45;;;;;;;18.80;12.27;;;19.00;80.30;;;;;;5096806;28;20499;-80
2021/09/08 07:14:10;;;;;;;16.02;11.63;;;19.10;79.90;;;;;;5113780;28;20024;-81
2021/09/08 07:16:36;;;;;;;15.30;11.80;;;19.20;79.60;;;;;;5113601;28;20031;-80
2021/09/08 07:19:02;;;;;;;22.77;12.07;;;19.40;79.30;;;;;;5097504;28;20036;-83
2021/09/08 07:21:28;;;;;;;19.77;11.98;;;19.50;79.40;;;;;;5099953;28;20035;-82
2021/09/08 07:23:53;;;;;;;17.48;11.63;;;19.70;78.10;;;;;;5113574;28;20059;-83
2021/09/08 07:26:19;;;;;;;17.33;11.18;;;19.80;77.80;;;;;;5091861;28;20024;-83
2021/09/08 07:28:45;;;;;;;16.02;11.82;;;20.00;77.50;;;;;;5093149;28;20040;-83
2021/09/08 07:31:10;;;;;;;18.20;11.90;;;20.10;76.80;;;;;;5106877;28;20019;-83
2021/09/08 07:33:36;;;;;;;15.95;11.25;;;20.20;76.30;;;;;;5091009;28;20024;-83
2021/09/08 07:36:02;;;;;;;17.25;11.45;;;20.30;76.10;;;;;;5062997;28;20503;-83
2021/09/08 07:38:28;;;;;;;16.35;11.13;;;20.50;75.90;;;;;;5092901;28;20039;-83
2021/09/08 07:40:55;;;;;;;16.77;10.82;;;20.60;75.50;;;;;;5092975;28;20024;-83
2021/09/08 07:43:21;;;;;;;17.48;11.63;;;20.70;75.10;;;;;;5109985;28;20031;-82
2021/09/08 07:45:47;;;;;;;16.75;10.80;;;20.80;74.30;;;;;;5089979;28;20109;-84
2021/09/08 07:48:14;;;;;;;13.73;11.23;;;20.90;74.10;;;;;;5102898;28;20043;-83
2021/09/08 07:50:40;;;;;;;19.13;11.70;;;21.00;74.00;;;;;;5112938;28;20026;-83
2021/09/08 07:53:09;;;;;;;15.77;10.90;;;21.10;73.70;;;;;;5113929;28;20073;-85
2021/09/08 07:55:38;;;;;;;19.40;11.32;;;21.20;74.00;;;;;;5110209;28;20437;-83
2021/09/08 07:58:03;;;;;;;;;;;21.30;73.40;;;;;;5076317;28;20052;-83
2021/09/08 08:00:31;;;;;;;15.20;10.85;;;21.50;73.10;;;;;;5099632;28;19908;-83
2021/09/08 08:03:09;;;;;;;13.83;11.00;;;21.60;72.70;;;;;;5097254;28;20452;-82
2021/09/08 08:05:35;;;;;;;14.57;10.30;;;21.70;72.10;;;;;;5114055;28;20273;-81
2021/09/08 08:08:01;;;;;;;14.13;11.05;;;21.90;72.20;;;;;;5114060;28;20079;-81
2021/09/08 08:10:27;;;;;;;16.50;10.43;;;22.10;71.70;;;;;;5095721;28;20562;-81
2021/09/08 08:12:53;;;;;;;16.67;10.50;;;22.20;71.70;;;;;;5113975;28;20912;-81
2021/09/08 08:15:19;;;;;;;17.15;10.75;;;22.30;70.90;;;;;;5112763;28;20114;-81
2021/09/08 08:17:46;;;;;;;15.35;11.07;;;22.40;70.10;;;;;;5114121;28;20019;-81
2021/09/08 08:20:12;;;;;;;14.60;10.32;;;22.50;69.90;;;;;;5114017;28;20028;-81
2021/09/08 08:22:39;;;;;;;22.60;11.02;;;22.60;69.40;;;;;;5113965;28;20020;-81
2021/09/08 08:25:07;;;;;;;14.40;10.07;;;22.70;68.80;;;;;;5113758;28;20020;-81
2021/09/08 08:27:33;;;;;;;16.70;10.17;;;22.80;68.90;;;;;;5112448;28;20030;-81
2021/09/08 08:29:59;;;;;;;17.95;10.43;;;22.90;68.70;;;;;;5113835;28;20186;-81
2021/09/08 08:32:25;;;;;;;12.23;9.88;;;23.00;68.20;;;;;;5083105;28;20048;-81
2021/09/08 08:34:51;;;;;;;14.57;10.65;;;23.10;67.90;;;;;;5101199;28;20056;-81
2021/09/08 08:37:17;;;;;;;19.27;10.02;;;23.30;67.50;;;;;;5112126;28;20024;-81
2021/09/08 08:39:43;;;;;;;17.83;9.98;;;23.30;67.40;;;;;;5113318;28;20081;-81
2021/09/08 08:42:13;;;;;;;18.65;10.48;;;23.40;66.70;;;;;;5113560;28;20031;-82
2021/09/08 08:44:40;;;;;;;11.95;9.27;;;23.40;66.50;;;;;;5111258;28;20048;-81
2021/09/08 08:47:06;;;;;;;16.40;10.70;;;23.50;66.90;;;;;;5112356;28;20051;-81
2021/09/08 08:49:33;;;;;;;15.32;9.95;;;23.70;66.30;;;;;;5095238;28;20116;-81
2021/09/08 08:51:59;;;;;;;12.32;9.57;;;23.90;66.10;;;;;;5091534;28;20024;-82
2021/09/08 08:54:24;;;;;;;13.18;9.20;;;24.00;66.00;;;;;;5074937;28;20035;-82
2021/09/08 08:56:53;;;;;;;16.20;9.70;;;24.20;65.70;;;;;;5073312;28;20028;-82
2021/09/08 08:59:19;;;;;;;;;;;24.40;65.50;;;;;;5092507;28;20056;-82
2021/09/08 09:01:44;;;;;;;13.35;9.15;;;24.40;64.80;;;;;;5094873;28;19918;-81
2021/09/08 09:04:16;;;;;;;13.68;9.82;;;24.50;64.50;;;;;;5095981;28;20046;-81
2021/09/08 09:06:46;;;;;;;11.68;9.90;;;24.50;64.20;;;;;;5116147;28;20503;-81
2021/09/08 09:09:16;;;;;;;13.98;10.07;;;24.60;64.20;;;;;;5115430;28;20069;-80
2021/09/08 09:11:45;;;;;;;13.40;9.18;;;24.60;63.70;;;;;;5117475;28;20106;-81
2021/09/08 09:14:12;;;;;;;15.18;9.88;;;24.70;63.60;;;;;;5116089;28;20026;-81
2021/09/08 09:16:40;;;;;;;16.83;9.02;;;24.80;63.40;;;;;;5116120;28;20127;-81
2021/09/08 09:19:08;;;;;;;11.80;9.75;;;24.90;63.60;;;;;;5115974;28;20050;-81
2021/09/08 09:21:34;;;;;;;11.32;9.55;;;25.10;63.30;;;;;;5099236;28;20038;-81
2021/09/08 09:24:02;;;;;;;11.38;8.80;;;25.20;62.70;;;;;;5116203;28;20028;-81
2021/09/08 09:26:29;;;;;;;;;;;25.30;62.20;;;;;;5116263;28;20024;-82
2021/09/08 09:29:05;;;;;;;13.43;10.07;;;25.40;62.50;;;;;;5115849;28;19907;-81
2021/09/08 09:31:31;;;;;;;12.82;8.30;;;25.50;61.70;;;;;;5117051;28;20042;-81
2021/09/08 09:33:57;;;;;;;15.63;9.15;;;25.50;62.40;;;;;;5098704;28;20024;-81
2021/09/08 09:36:27;;;;;;;16.52;9.02;;;25.60;61.20;;;;;;5105002;28;20031;-81
2021/09/08 09:38:54;;;;;;;13.88;8.88;;;25.60;61.00;;;;;;5108039;28;20576;-81
2021/09/08 09:41:31;;;;;;;13.57;8.63;;;25.70;60.90;;;;;;5116980;28;20027;-81
2021/09/08 09:44:08;;;;;;;12.05;8.73;;;25.70;60.90;;;;;;5116744;28;20507;-81
2021/09/08 09:46:34;;;;;;;13.60;8.43;;;25.90;61.10;;;;;;5115517;28;20027;-81
2021/09/08 09:49:03;;;;;;;13.20;8.40;;;26.00;61.00;;;;;;5115357;28;20035;-81
2021/09/08 09:51:29;;;;;;;9.35;8.15;;;26.10;60.00;;;;;;5115349;28;20051;-81
2021/09/08 09:53:56;;;;;;;12.93;8.60;;;26.20;59.60;;;;;;5102604;28;20032;-82
2021/09/08 09:56:22;;;;;;;9.40;8.10;;;26.30;60.10;;;;;;5078094;28;20035;-82
2021/09/08 09:58:47;;;;;;;12.15;7.75;;;26.30;59.20;;;;;;5094675;28;20075;-82
2021/09/08 10:01:13;;;;;;;11.85;8.27;;;26.40;59.20;;;;;;5094816;28;20074;-82
2021/09/08 10:03:39;;;;;;;12.10;8.75;;;26.40;59.00;;;;;;5078013;28;20048;-82
2021/09/08 10:06:05;;;;;;;10.20;8.77;;;26.50;59.00;;;;;;5095870;28;20086;-81
2021/09/08 10:08:38;;;;;;;13.40;8.35;;;26.50;59.30;;;;;;5077754;28;20024;-82
2021/09/08 10:11:07;;;;;;;10.55;8.05;;;26.60;58.30;;;;;;5093394;28;20020;-82
2021/09/08 10:13:48;;;;;;;10.10;8.13;;;26.60;58.90;;;;;;5094887;28;20069;-82
2021/09/08 10:16:14;;;;;;;10.27;7.80;;;26.60;58.00;;;;;;5103195;28;20024;-81
2021/09/08 10:18:41;;;;;;;14.20;8.38;;;26.80;58.10;;;;;;5114896;28;20542;-82
2021/09/08 10:21:10;;;;;;;12.77;7.20;;;26.90;57.90;;;;;;5113583;28;20034;-82
2021/09/08 10:23:45;;;;;;;10.13;7.72;;;26.90;57.60;;;;;;5113562;28;20426;-82
2021/09/08 10:26:13;;;;;;;9.80;7.80;;;27.00;58.00;;;;;;5110603;28;20024;-82
2021/09/08 10:28:41;;;;;;;10.05;7.65;;;27.00;57.60;;;;;;5094960;28;20024;-81
2021/09/08 10:31:08;;;;;;;11.30;8.10;;;27.10;57.40;;;;;;5095514;28;20047;-82
2021/09/08 10:33:39;;;;;;;12.63;7.85;;;27.10;56.40;;;;;;5115680;28;20035;-82
2021/09/08 10:36:09;;;;;;;10.10;7.80;;;27.20;56.10;;;;;;5114257;28;20361;-82
2021/09/08 10:38:35;;;;;;;14.60;8.30;;;27.30;56.00;;;;;;5111779;28;20032;-82
2021/09/08 10:41:03;;;;;;;10.48;7.55;;;27.30;55.30;;;;;;5076944;28;20488;-82
2021/09/08 10:43:32;;;;;;;;;;;27.30;54.90;;;;;;5094206;28;20385;-82
2021/09/08 10:45:57;;;;;;;12.48;7.68;;;27.30;54.40;;;;;;5095090;28;19904;-82
2021/09/08 10:48:43;;;;;;;10.00;6.95;;;27.30;54.80;;;;;;5059963;28;20071;-82
2021/09/08 10:51:39;;;;;;;10.98;7.47;;;27.40;54.60;;;;;;5096905;28;20028;-82
2021/09/08 10:54:06;;;;;;;9.25;6.45;;;27.40;54.20;;;;;;5114066;28;20384;-82
2021/09/08 10:56:45;;;;;;;10.40;6.88;;;27.50;54.40;;;;;;5115569;28;20028;-82
2021/09/08 10:59:11;;;;;;;9.18;6.97;;;27.60;53.90;;;;;;5114111;28;20400;-81
2021/09/08 11:01:37;;;;;;;9.52;7.50;;;27.60;53.80;;;;;;5114141;28;20036;-81
2021/09/08 11:04:03;;;;;;;11.90;7.22;;;27.70;53.60;;;;;;5113951;28;20433;-81
2021/09/08 11:06:43;;;;;;;9.85;6.25;;;27.80;53.30;;;;;;5113919;28;20031;-81
2021/09/08 11:09:13;;;;;;;9.40;6.70;;;27.80;52.00;;;;;;5113591;28;20031;-81
2021/09/08 11:11:53;;;;;;;8.18;6.68;;;27.90;51.90;;;;;;5114768;28;20537;-81
2021/09/08 11:14:20;;;;;;;9.07;7.40;;;27.90;51.70;;;;;;5101324;28;20071;-81
2021/09/08 11:16:46;;;;;;;8.68;6.53;;;27.90;51.40;;;;;;5093390;28;20078;-82
2021/09/08 11:19:13;;;;;;;12.25;6.70;;;27.90;51.70;;;;;;5092941;28;20400;-81
2021/09/08 11:21:39;;;;;;;9.40;7.32;;;28.00;51.70;;;;;;5076057;28;20036;-81
2021/09/08 11:24:08;;;;;;;14.90;7.70;;;28.00;51.50;;;;;;5093063;28;20028;-82
2021/09/08 11:26:36;;;;;;;7.80;6.70;;;28.10;51.80;;;;;;5094206;28;20431;-81
2021/09/08 11:29:06;;;;;;;;;;;28.10;50.90;;;;;;5094443;28;20030;-81
2021/09/08 11:31:35;;;;;;;8.63;6.68;;;28.10;51.10;;;;;;5092280;28;19907;-81
2021/09/08 11:34:02;;;;;;;9.27;6.45;;;28.10;50.00;;;;;;5093767;28;20032;-81
2021/09/08 11:36:30;;;;;;;8.93;6.70;;;28.10;50.00;;;;;;5094026;28;20066;-81
2021/09/08 11:38:58;;;;;;;8.30;6.97;;;28.20;51.00;;;;;;5093915;28;20059;-81
2021/09/08 11:41:26;;;;;;;11.18;6.82;;;28.20;51.10;;;;;;5093797;28;20076;-82
2021/09/08 11:43:53;;;;;;;16.75;7.40;;;28.20;50.00;;;;;;5092835;28;20076;-82
2021/09/08 11:46:19;;;;;;;10.60;6.78;;;28.30;49.50;;;;;;5094061;28;20028;-82
2021/09/08 11:48:49;;;;;;;12.32;7.63;;;28.30;49.90;;;;;;5092726;28;20028;-82
2021/09/08 11:51:17;;;;;;;11.90;6.63;;;28.30;48.60;;;;;;5092632;28;20027;-82
2021/09/08 11:53:43;;;;;;;11.63;7.25;;;28.30;49.10;;;;;;5092525;28;20027;-82
2021/09/08 11:56:10;;;;;;;8.20;7.00;;;28.40;48.80;;;;;;5093718;28;20036;-81
2021/09/08 11:58:39;;;;;;;9.77;6.65;;;28.40;48.20;;;;;;5092386;28;20128;-81
2021/09/08 12:01:08;;;;;;;8.43;6.75;;;28.40;48.20;;;;;;5092365;28;20032;-81
2021/09/08 12:03:45;;;;;;;11.10;6.63;;;28.50;48.00;;;;;;5109261;28;20028;-81
2021/09/08 12:06:22;;;;;;;9.98;6.25;;;28.50;48.70;;;;;;5099052;28;20028;-81
2021/09/08 12:08:49;;;;;;;11.87;7.47;;;28.50;48.60;;;;;;5093452;28;20558;-81
2021/09/08 12:11:34;;;;;;;12.98;7.80;;;28.50;48.70;;;;;;5093603;28;20258;-83
2021/09/08 12:14:39;;;;;;;13.27;7.03;;;28.50;48.50;;;;;;5092022;28;20055;-82
2021/09/08 12:17:18;;;;;;;9.93;6.82;;;28.60;48.20;;;;;;5093500;28;20048;-81
2021/09/08 12:19:48;;;;;;;8.10;6.57;;;28.60;48.10;;;;;;5112039;28;20429;-81
2021/09/08 12:22:26;;;;;;;13.10;7.13;;;28.60;48.10;;;;;;5112466;28;20030;-81
2021/09/08 12:25:22;;;;;;;10.30;6.78;;;28.60;47.90;;;;;;5113896;28;20020;-82
2021/09/08 12:27:53;;;;;;;11.15;6.80;;;28.60;48.10;;;;;;5109788;28;20031;-82
2021/09/08 12:30:18;;;;;;;12.07;6.72;;;28.60;47.10;;;;;;5112376;28;20024;-82
2021/09/08 12:32:47;;;;;;;11.38;7.00;;;28.60;46.70;;;;;;5111693;28;20028;-81